• Join FlightAware (Why Join?)
  • Login
  • US Flag 
07:54AM EDT


 

Airport Tracker/Info


-or-


 

Live Flight TrackerFlight Track Log ✈ SWA3505 ✈ 04-May-2013 ✈ KPDX - KSJC

Flight Track Log - Related Links

Times and Time Zones

All times are in EDT time to prevent confusion due to time zone crossing. See the SWA3505 flight status page for this flight to view local times or setup timezone preferences in your user account.

Time Position Orientation Groundspeed Altitude Reporting Facility
EDT Latitude Longitude Course Direction KTS MPH feet Rate Location/Type
01:00PM 45.5942 -122.5978 296° West 150 173 500  Level Seattle Center
01:00PM 45.6044 -122.6275 296° West 170 196 1,400 2,040 Climbing Seattle Center
01:01PM 45.6311 -122.7061 296° West 246 283 3,600 2,040 Climbing Seattle Center
01:02PM 45.6567 -122.7700 300° West 260 299 5,200 2,940 Climbing Seattle Center
01:03PM 45.6394 -122.8633 255° West 310 357 8,700 3,180 Climbing Seattle Center
01:04PM 45.5503 -122.8825 189° South 331 381 11,400 2,820 Climbing Seattle Center
01:05PM 45.4464 -122.9136 192° South 380 437 14,500 3,060 Climbing Seattle Center
01:06PM 45.3381 -122.9408 190° South 394 453 17,700 2,820 Climbing Seattle Center
01:07PM 45.2219 -122.9694 190° South 420 483 20,300 2,340 Climbing Seattle Center
01:08PM 45.0972 -122.9992 190° South 452 520 22,500 2,280 Climbing Seattle Center
01:09PM 44.9661 -123.0294 189° South 473 544 25,000 2,160 Climbing Seattle Center
01:10PM 44.8322 -123.0583 189° South 478 550 27,000 1,860 Climbing Seattle Center
01:11PM 44.6936 -123.0892 189° South 490 564 28,800 1,740 Climbing Seattle Center
01:12PM 44.5506 -123.1233 190° South 509 586 30,600 1,680 Climbing Seattle Center
01:13PM 44.4050 -123.1308 182° South 519 597 32,300 1,800 Climbing Seattle Center
01:14PM 44.2650 -123.1247 178° South 511 588 34,300 1,560 Climbing Seattle Center
01:15PM 44.1214 -123.1203 179° South 513 590 35,500 1,380 Climbing Seattle Center
01:16PM 43.9697 -123.1161 179° South 514 592 37,100 1,380 Climbing Seattle Center
01:17PM 43.8283 -123.1111 179° South 509 586 38,300 780 Climbing Seattle Center
01:18PM 43.6831 -123.1058 178° South 520 598 38,800 300 Climbing Seattle Center
01:19PM 43.5367 -123.0994 178° South 525 604 39,000 -360 Climbing Seattle Center
01:20PM 43.3931 -123.0939 178° South 517 595 38,100 -900 Descending Seattle Center
01:21PM 43.2489 -123.0900 179° South 518 596 37,200 -600 Descending Seattle Center
01:22PM 43.1069 -123.0853 179° South 511 588 37,000 -120 Descending Seattle Center
01:23PM 42.9378 -123.0778 178° South 508 585 37,000  Level Seattle Center
01:24PM 42.7947 -123.0728 179° South 512 589 37,000  Level Seattle Center
01:25PM 42.6589 -123.0689 179° South 516 594 37,000  Level Seattle Center
01:26PM 42.5164 -123.0658 179° South 517 595 37,000  Level Seattle Center
01:27PM 42.3736 -123.0603 178° South 514 592 37,000  Level Seattle Center
01:28PM 42.2322 -123.0556 179° South 512 589 37,000  Level Seattle Center
01:29PM 42.0914 -123.0508 179° South 510 587 37,000  Level Seattle Center
01:30PM 41.9525 -123.0475 179° South 504 580 37,000  Level Seattle Center
01:31PM 41.8147 -123.0433 179° South 499 574 37,000  Level Seattle Center
01:32PM 41.6769 -123.0350 177° South 498 573 37,000  Level Seattle Center
01:33PM 41.5411 -123.0292 178° South 493 567 37,000  Level Seattle Center
01:34PM 41.3811 -123.0244 179° South 486 559 37,000  Level Seattle Center
01:35PM 41.2453 -123.0189 178° South 487 560 37,000  Level Seattle Center
01:36PM 41.1083 -123.0117 178° South 490 564 37,000  Level Seattle Center
01:37PM 40.9703 -123.0033 177° South 493 567 37,000  Level Seattle Center
01:38PM 40.8614 -122.9978 178° South 493 567 37,000  Level Oakland Center
01:39PM 40.7192 -122.9917 178° South 491 565 37,000  Level Oakland Center
01:40PM 40.5836 -122.9856 178° South 491 565 37,000  Level Oakland Center
01:41PM 40.4472 -122.9786 178° South 493 567 37,000  Level Oakland Center
01:42PM 40.3106 -122.9711 178° South 495 570 37,000  Level Oakland Center
01:43PM 40.1742 -122.9664 178° South 495 570 37,000  Level Oakland Center
01:44PM 40.0128 -122.9583 178° South 490 564 37,000  Level Oakland Center
01:45PM 39.8792 -122.9531 178° South 486 559 37,000  Level Oakland Center
01:46PM 39.7428 -122.9458 178° South 492 566 37,000  Level Oakland Center
01:47PM 39.6036 -122.9386 178° South 501 577 37,000  Level Oakland Center
01:49PM 39.4539 -122.9322 178° South 498 573 37,000  Level Oakland Center
01:50PM 39.3214 -122.9228 177° South 484 557 37,000  Level Oakland Center
01:51PM 39.1856 -122.9158 178° South 488 562 37,000 -240 Level Oakland Center
01:52PM 39.0503 -122.9103 178° South 487 560 36,600 -1,440 Descending Oakland Center
01:53PM 38.9144 -122.9036 178° South 488 562 34,100 -2,340 Descending Oakland Center
01:54PM 38.7819 -122.8972 178° South 480 552 31,900 -2,100 Descending Oakland Center
01:55PM 38.6522 -122.8944 179° South 471 542 29,900 -1,980 Descending Oakland Center
01:56PM 38.5264 -122.8897 178° South 458 527 27,900 -1,980 Descending Oakland Center
01:57PM 38.4033 -122.8842 178° South 447 514 25,900 -2,160 Descending Oakland Center
01:58PM 38.2600 -122.8764 178° South 433 498 23,600 -1,860 Descending Oakland Center
01:59PM 38.1486 -122.8556 172° South 409 471 22,200 -1,620 Descending Oakland Center
02:00PM 38.0569 -122.7881 150° Southeast 392 451 20,400 -1,920 Descending Oakland Center
02:01PM 37.9653 -122.7225 151° Southeast 384 442 18,400 -2,040 Descending Oakland Center
02:02PM 37.8775 -122.6567 149° Southeast 381 438 16,300 -2,220 Descending Oakland Center
02:02PM 37.8167 -122.5833 136° Southeast 370 426 14,700 -1,980 Descending Northern Cal TRACON
02:03PM 37.7333 -122.5000 142° Southeast 353 406 13,000 -1,380 Descending Northern Cal TRACON
02:04PM 37.6667 -122.4333 142° Southeast 330 380 12,000 -600 Descending Northern Cal TRACON
02:05PM 37.6000 -122.3667 142° Southeast 325 374 11,900 -300 Descending Northern Cal TRACON
02:06PM 37.5694 -122.3381 143° Southeast 328 377 11,600 -1,140 Descending Oakland Center
02:07PM 37.4911 -122.2939 156° South 309 356 10,200 -1,260 Descending Oakland Center
02:08PM 37.4147 -122.2469 154° Southeast 306 352 9,100 -1,320 Descending Oakland Center
02:09PM 37.3517 -122.1831 141° Southeast 303 349 7,600 -1,080 Descending Oakland Center
02:10PM 37.3025 -122.1006 127° Southeast 296 341 6,900 -900 Descending Oakland Center
02:11PM 37.2539 -122.0186 127° Southeast 294 338 5,800 -1,080 Descending Oakland Center
02:12PM 37.2222 -121.9214 112° Southeast 262 302 4,800 -900 Descending Oakland Center
02:13PM 37.2408 -121.8539 71° East 223 257 4,000 -1,080 Descending Oakland Center
02:14PM 37.2822 -121.8447 10° North 191 220 2,600 -1,380 Descending Oakland Center
02:15PM 37.3161 -121.8806 320° Northwest 170 196 1,200 -1,140 Descending Oakland Center
02:16PM 37.3464 -121.9142 319° Northwest 156 180 300 -900 Descending Oakland Center